createdAt,value
2023-03-26T00:01:50.134Z,1.10
2023-03-26T00:04:19.808Z,0.83
2023-03-26T00:06:49.639Z,0.60
2023-03-26T00:09:18.244Z,0.80
2023-03-26T00:11:46.716Z,0.87
2023-03-26T00:14:16.994Z,1.80
2023-03-26T00:16:46.103Z,1.23
2023-03-26T00:19:14.628Z,1.23
2023-03-26T00:21:42.559Z,0.80
2023-03-26T00:24:13.877Z,0.83
2023-03-26T00:26:42.628Z,0.70
2023-03-26T00:29:13.214Z,1.53
2023-03-26T00:31:41.688Z,1.10
2023-03-26T00:34:11.001Z,1.10
2023-03-26T00:36:38.980Z,1.00
2023-03-26T00:39:06.913Z,1.27
2023-03-26T00:41:37.528Z,0.90
2023-03-26T00:44:05.887Z,1.00
2023-03-26T00:46:34.393Z,0.77
2023-03-26T00:49:04.249Z,1.10
2023-03-26T00:51:34.341Z,1.40
2023-03-26T00:54:02.853Z,1.83
2023-03-26T00:56:30.974Z,1.20
2023-03-26T00:59:00.841Z,1.10
2023-03-26T01:01:30.776Z,1.23
2023-03-26T01:04:08.922Z,2.03
2023-03-26T01:06:36.629Z,1.23
2023-03-26T01:09:09.712Z,1.00
2023-03-26T01:11:38.248Z,1.03
2023-03-26T01:14:14.203Z,0.40
2023-03-26T01:16:45.675Z,0.90
2023-03-26T01:19:17.055Z,0.57
2023-03-26T01:21:47.014Z,0.63
2023-03-26T01:24:15.349Z,0.60
2023-03-26T01:27:02.059Z,0.77
2023-03-26T01:29:48.867Z,0.40
2023-03-26T01:32:21.946Z,0.43
2023-03-26T01:35:05.202Z,0.50
2023-03-26T01:37:35.357Z,0.60
2023-03-26T01:40:07.742Z,1.53
2023-03-26T01:42:37.793Z,0.90
2023-03-26T01:45:11.090Z,1.10
2023-03-26T01:47:40.454Z,0.90
2023-03-26T01:52:36.756Z,0.78
2023-03-26T01:55:05.011Z,0.97
2023-03-26T01:57:35.023Z,1.77
2023-03-26T02:00:06.613Z,0.80
2023-03-26T02:02:52.797Z,0.83
2023-03-26T02:05:26.070Z,1.13
2023-03-26T02:07:56.661Z,0.70
2023-03-26T02:10:26.050Z,0.80
2023-03-26T02:12:54.842Z,2.40
2023-03-26T02:15:23.636Z,1.00
2023-03-26T02:17:53.553Z,1.13
2023-03-26T02:20:22.087Z,1.33
2023-03-26T02:22:50.761Z,1.13
2023-03-26T02:25:19.969Z,1.50
2023-03-26T02:27:49.481Z,1.07
2023-03-26T02:32:45.115Z,1.30
2023-03-26T02:35:13.613Z,3.90
2023-03-26T02:37:42.330Z,1.10
2023-03-26T02:40:12.301Z,1.03
2023-03-26T02:42:40.781Z,1.30
2023-03-26T02:45:08.847Z,2.00
2023-03-26T02:47:37.263Z,1.03
2023-03-26T02:50:06.097Z,1.67
2023-03-26T02:52:34.602Z,0.93
2023-03-26T02:55:03.325Z,1.50
2023-03-26T02:57:31.961Z,1.57
2023-03-26T03:00:00.436Z,1.20
2023-03-26T03:02:29.458Z,2.80
2023-03-26T03:04:59.144Z,1.53
2023-03-26T03:09:54.593Z,1.72
2023-03-26T03:12:22.474Z,1.73
2023-03-26T03:14:51.741Z,1.43
2023-03-26T03:17:21.656Z,1.40
2023-03-26T03:19:50.246Z,1.30
2023-03-26T03:22:18.025Z,1.27
2023-03-26T03:24:46.434Z,3.17
2023-03-26T03:27:15.338Z,1.30
2023-03-26T03:29:44.170Z,1.83
2023-03-26T03:32:12.540Z,2.57
2023-03-26T03:34:42.575Z,1.73
2023-03-26T03:37:11.268Z,2.30
2023-03-26T03:39:39.142Z,2.77
2023-03-26T03:42:07.704Z,2.20
2023-03-26T03:44:36.284Z,2.87
2023-03-26T03:47:04.875Z,2.70
2023-03-26T03:49:32.668Z,2.40
2023-03-26T03:52:02.148Z,4.10
2023-03-26T03:54:30.993Z,3.67
2023-03-26T03:56:59.520Z,2.53
2023-03-26T03:59:27.582Z,2.37
2023-03-26T04:01:56.372Z,3.23
2023-03-26T04:04:25.387Z,2.80
2023-03-26T04:06:53.644Z,2.53
2023-03-26T04:09:22.017Z,2.57
2023-03-26T04:11:51.737Z,5.07
2023-03-26T04:14:20.523Z,2.53
2023-03-26T04:16:49.672Z,3.40
2023-03-26T04:19:17.959Z,3.30
2023-03-26T04:21:46.484Z,4.43
2023-03-26T04:24:14.972Z,3.33
2023-03-26T04:26:42.955Z,4.40
2023-03-26T04:29:14.165Z,3.67
2023-03-26T04:31:43.608Z,7.00
2023-03-26T04:34:14.779Z,3.53
2023-03-26T04:36:42.903Z,3.90
2023-03-26T04:39:13.732Z,4.80
2023-03-26T04:41:42.154Z,4.73
2023-03-26T04:44:10.344Z,3.43
2023-03-26T04:46:38.874Z,5.90
2023-03-26T04:49:07.778Z,3.43
2023-03-26T04:51:38.501Z,3.70
2023-03-26T04:54:07.698Z,4.13
2023-03-26T04:56:43.916Z,3.50
2023-03-26T04:59:14.378Z,4.37
2023-03-26T05:01:44.521Z,4.63
2023-03-26T05:04:13.633Z,4.33
2023-03-26T05:06:42.593Z,5.10
2023-03-26T05:09:11.113Z,4.53
2023-03-26T05:11:39.069Z,4.57
2023-03-26T05:14:08.109Z,3.43
2023-03-26T05:16:37.832Z,4.73
2023-03-26T05:19:05.889Z,6.10
2023-03-26T05:21:34.239Z,5.27
2023-03-26T05:24:02.477Z,5.37
2023-03-26T05:26:31.032Z,5.33
2023-03-26T05:28:59.536Z,4.77
2023-03-26T05:31:28.624Z,5.20
2023-03-26T05:33:57.439Z,6.53
2023-03-26T05:36:26.565Z,6.53
2023-03-26T05:38:54.892Z,7.57
2023-03-26T05:41:23.451Z,5.60
2023-03-26T05:43:51.464Z,7.13
2023-03-26T05:46:20.712Z,9.10
2023-03-26T05:48:49.143Z,6.00
2023-03-26T05:51:18.155Z,6.60
2023-03-26T05:53:46.197Z,6.00
2023-03-26T05:56:14.756Z,7.43
2023-03-26T05:58:43.872Z,9.00
2023-03-26T06:01:14.971Z,6.57
2023-03-26T06:03:44.384Z,6.93
2023-03-26T06:06:17.287Z,6.40
2023-03-26T06:09:02.087Z,7.10
2023-03-26T06:11:21.019Z,7.07
2023-03-26T06:13:49.403Z,7.00
2023-03-26T06:16:27.190Z,5.40
2023-03-26T06:18:47.935Z,7.87
2023-03-26T06:21:20.990Z,5.40
2023-03-26T06:23:49.527Z,5.30
2023-03-26T06:26:17.861Z,4.97
2023-03-26T06:28:46.360Z,5.13
2023-03-26T06:31:14.908Z,4.30
2023-03-26T06:33:43.005Z,5.17
2023-03-26T06:36:11.978Z,4.77
2023-03-26T06:43:35.574Z,6.25
2023-03-26T06:46:04.525Z,6.33
2023-03-26T06:50:59.888Z,5.83
2023-03-26T06:53:28.376Z,7.40
2023-03-26T06:55:56.967Z,5.80
2023-03-26T06:58:25.468Z,5.20
2023-03-26T07:00:55.312Z,5.20
2023-03-26T07:03:24.326Z,5.57
2023-03-26T07:05:52.836Z,5.57
2023-03-26T07:08:21.529Z,5.27
2023-03-26T07:10:49.390Z,6.27
2023-03-26T07:13:19.449Z,5.67
2023-03-26T07:15:49.304Z,5.23
2023-03-26T07:18:17.807Z,5.70
2023-03-26T07:20:47.118Z,5.80
2023-03-26T07:23:17.429Z,5.43
2023-03-26T07:25:45.836Z,5.60
2023-03-26T07:28:32.422Z,5.40
2023-03-26T07:31:21.051Z,6.57
2023-03-26T07:33:50.488Z,6.00
2023-03-26T07:36:20.254Z,6.17
2023-03-26T07:38:50.303Z,4.90
2023-03-26T07:41:26.885Z,5.10
2023-03-26T07:44:13.791Z,4.10
2023-03-26T07:46:42.650Z,4.50
2023-03-26T07:49:13.036Z,4.63
2023-03-26T07:51:41.863Z,4.70
2023-03-26T07:54:11.731Z,5.83
2023-03-26T07:56:41.813Z,6.53
2023-03-26T07:59:16.111Z,4.10
2023-03-26T08:01:52.000Z,5.23
2023-03-26T08:04:40.387Z,5.00
2023-03-26T08:07:11.030Z,4.40
2023-03-26T08:09:57.723Z,4.80
2023-03-26T08:12:27.714Z,5.40
2023-03-26T08:15:02.946Z,4.90
2023-03-26T08:17:33.061Z,4.70
2023-03-26T08:20:09.146Z,4.77
2023-03-26T08:22:39.041Z,5.00
2023-03-26T08:25:21.005Z,4.77
2023-03-26T08:27:53.610Z,6.00
2023-03-26T08:30:22.654Z,4.90
2023-03-26T08:40:16.068Z,3.98
2023-03-26T08:42:49.026Z,4.97
2023-03-26T08:45:24.578Z,3.43
2023-03-26T08:48:06.198Z,5.90
2023-03-26T08:50:48.855Z,3.70
2023-03-26T08:53:35.113Z,5.17
2023-03-26T08:56:04.975Z,4.10
2023-03-26T08:58:34.712Z,3.97
2023-03-26T09:01:16.510Z,3.57
2023-03-26T09:03:53.179Z,4.07
2023-03-26T09:06:26.443Z,2.93
2023-03-26T09:09:07.780Z,3.73
2023-03-26T09:11:51.978Z,3.23
2023-03-26T09:14:21.859Z,2.67
2023-03-26T09:17:09.219Z,3.80
2023-03-26T09:19:39.133Z,2.80
2023-03-26T09:22:12.015Z,2.50
2023-03-26T09:24:58.418Z,2.63
2023-03-26T09:27:40.673Z,3.47
2023-03-26T09:30:16.820Z,2.90
2023-03-26T09:32:49.682Z,3.30
2023-03-26T09:35:35.985Z,2.73
2023-03-26T09:38:15.290Z,2.80
2023-03-26T09:41:00.371Z,3.50
2023-03-26T09:43:42.371Z,2.40
2023-03-26T09:46:28.976Z,2.50
2023-03-26T09:48:59.006Z,2.40
2023-03-26T09:51:30.434Z,3.40
2023-03-26T09:54:18.283Z,3.33
2023-03-26T09:56:48.172Z,2.87
2023-03-26T09:59:24.264Z,3.00
2023-03-26T10:01:56.431Z,2.20
2023-03-26T10:04:46.005Z,3.27
2023-03-26T10:07:32.815Z,2.23
2023-03-26T10:10:15.117Z,2.67
2023-03-26T10:12:48.053Z,3.53
2023-03-26T10:15:18.134Z,3.30
2023-03-26T10:18:27.563Z,2.47
2023-03-26T10:20:38.129Z,2.33
2023-03-26T10:23:13.351Z,2.27
2023-03-26T10:25:47.184Z,2.43
2023-03-26T10:28:17.188Z,2.10
2023-03-26T10:30:47.114Z,3.20
2023-03-26T10:33:28.930Z,2.30
2023-03-26T10:36:04.848Z,1.47
2023-03-26T10:38:40.662Z,1.53
2023-03-26T10:41:13.787Z,2.87
2023-03-26T10:44:08.401Z,1.67
2023-03-26T10:46:35.746Z,2.00
2023-03-26T10:49:22.660Z,1.73
2023-03-26T10:51:55.646Z,2.83
2023-03-26T10:54:43.683Z,2.60
2023-03-26T10:57:25.587Z,3.03
2023-03-26T10:59:55.794Z,2.90
2023-03-26T11:02:34.761Z,1.47
2023-03-26T11:05:21.507Z,1.50
2023-03-26T11:08:08.510Z,2.20
2023-03-26T11:10:38.582Z,1.70
2023-03-26T11:13:25.181Z,1.80
2023-03-26T11:16:07.244Z,1.60
2023-03-26T11:18:36.601Z,3.33
2023-03-26T11:21:21.160Z,1.60
2023-03-26T11:24:04.756Z,1.93
2023-03-26T11:26:28.356Z,2.33
2023-03-26T11:29:03.292Z,3.43
2023-03-26T11:31:32.470Z,2.17
2023-03-26T11:34:03.891Z,1.87
2023-03-26T11:36:33.562Z,2.60
2023-03-26T11:39:04.114Z,2.17
2023-03-26T11:41:32.867Z,2.27
2023-03-26T11:44:03.455Z,1.67
2023-03-26T11:46:33.764Z,1.07
2023-03-26T11:49:04.035Z,1.17
2023-03-26T11:51:34.673Z,1.53
2023-03-26T11:54:04.022Z,1.50
2023-03-26T11:57:05.174Z,1.80
2023-03-26T11:59:23.264Z,1.10
2023-03-26T12:01:53.442Z,1.50
2023-03-26T12:04:35.700Z,1.07
2023-03-26T12:07:17.781Z,2.07
2023-03-26T12:09:53.532Z,0.80
2023-03-26T12:12:23.108Z,3.70
2023-03-26T12:14:51.254Z,2.40
2023-03-26T12:17:31.378Z,2.33
2023-03-26T12:19:57.384Z,1.37
2023-03-26T12:22:30.052Z,1.50
2023-03-26T12:24:59.978Z,2.67
2023-03-26T12:27:30.755Z,1.13
2023-03-26T12:30:12.517Z,1.30
2023-03-26T12:32:46.218Z,2.13
2023-03-26T12:35:14.204Z,1.60
2023-03-26T12:37:44.478Z,1.63
2023-03-26T12:40:29.277Z,1.30
2023-03-26T12:44:49.407Z,2.07
2023-03-26T12:48:04.057Z,1.07
2023-03-26T12:50:36.825Z,1.87
2023-03-26T12:53:09.844Z,2.03
2023-03-26T12:55:42.130Z,2.70
2023-03-26T12:58:18.612Z,1.40
2023-03-26T13:00:48.764Z,1.10
2023-03-26T13:03:24.853Z,1.00
2023-03-26T13:06:03.651Z,1.10
2023-03-26T13:08:50.680Z,1.47
2023-03-26T13:11:23.588Z,0.80
2023-03-26T13:13:57.268Z,1.20
2023-03-26T13:16:36.682Z,1.67
2023-03-26T13:19:22.177Z,0.60
2023-03-26T13:21:53.492Z,1.07
2023-03-26T13:24:35.429Z,0.77
2023-03-26T13:27:15.231Z,1.00
2023-03-26T13:29:49.951Z,1.03
2023-03-26T13:32:20.015Z,3.07
2023-03-26T13:34:49.840Z,3.40
2023-03-26T13:37:20.671Z,2.57
2023-03-26T13:39:50.417Z,1.50
2023-03-26T13:42:27.308Z,0.90
2023-03-26T13:45:04.568Z,1.20
2023-03-26T13:47:30.589Z,1.00
2023-03-26T13:50:00.722Z,2.70
2023-03-26T13:52:30.644Z,1.53
2023-03-26T13:55:00.409Z,0.80
2023-03-26T13:57:32.689Z,1.27
2023-03-26T14:00:08.455Z,2.43
2023-03-26T14:02:49.157Z,3.47
2023-03-26T14:05:19.253Z,3.33
2023-03-26T14:08:04.783Z,2.07
2023-03-26T14:10:37.181Z,2.73
2023-03-26T14:13:09.696Z,1.13
2023-03-26T14:15:55.441Z,1.23
2023-03-26T14:18:31.907Z,1.23
2023-03-26T14:21:07.917Z,0.90
2023-03-26T14:23:46.619Z,0.67
2023-03-26T14:26:19.440Z,0.83
2023-03-26T14:28:49.380Z,0.83
2023-03-26T14:31:23.777Z,1.63
2023-03-26T14:34:00.223Z,1.23
2023-03-26T14:36:36.271Z,1.27
2023-03-26T14:39:24.580Z,1.73
2023-03-26T14:41:54.665Z,2.10
2023-03-26T14:44:24.820Z,1.13
2023-03-26T14:46:55.036Z,1.70
2023-03-26T14:49:41.957Z,1.80
2023-03-26T14:52:20.991Z,1.77
2023-03-26T14:54:50.897Z,1.37
2023-03-26T14:57:29.667Z,0.83
2023-03-26T15:00:04.266Z,1.80
2023-03-26T15:02:34.414Z,1.30
2023-03-26T15:05:20.864Z,1.47
2023-03-26T15:08:00.002Z,2.20
2023-03-26T15:10:47.376Z,2.03
2023-03-26T15:13:33.928Z,1.83
2023-03-26T15:16:20.130Z,1.57
2023-03-26T15:19:02.332Z,1.50
2023-03-26T15:21:41.352Z,1.17
2023-03-26T15:24:19.470Z,1.13
2023-03-26T15:27:06.114Z,1.23
2023-03-26T15:29:42.748Z,1.50
2023-03-26T15:32:15.430Z,1.40
2023-03-26T15:35:03.363Z,1.73
2023-03-26T15:37:45.252Z,1.33
2023-03-26T15:40:26.744Z,1.40
2023-03-26T15:43:02.699Z,0.77
2023-03-26T15:45:38.481Z,1.27
2023-03-26T15:48:11.082Z,1.57
2023-03-26T15:50:46.585Z,1.73
2023-03-26T15:53:34.242Z,1.37
2023-03-26T16:01:08.212Z,2.02
2023-03-26T16:03:44.318Z,2.10
2023-03-26T16:06:32.577Z,3.80
2023-03-26T16:09:06.603Z,2.97
2023-03-26T16:11:44.685Z,1.57
2023-03-26T16:14:16.367Z,1.30
2023-03-26T16:16:55.276Z,3.30
2023-03-26T16:19:24.955Z,2.03
2023-03-26T16:21:58.363Z,3.87
2023-03-26T16:24:28.378Z,4.07
2023-03-26T16:26:58.269Z,2.27
2023-03-26T16:29:28.648Z,2.60
2023-03-26T16:32:11.277Z,3.90
2023-03-26T16:34:42.868Z,2.93
2023-03-26T16:37:29.406Z,2.87
2023-03-26T16:39:59.436Z,7.33
2023-03-26T16:42:42.979Z,9.77
2023-03-26T16:45:24.368Z,7.63
2023-03-26T16:47:54.488Z,7.53
2023-03-26T16:50:26.985Z,7.40
2023-03-26T16:53:02.583Z,7.20
2023-03-26T16:55:35.689Z,5.83
2023-03-26T16:58:11.297Z,5.97
2023-03-26T17:00:44.555Z,6.40
2023-03-26T17:03:21.369Z,9.30
2023-03-26T17:05:57.548Z,7.60
2023-03-26T17:08:36.900Z,9.13
2023-03-26T17:11:03.190Z,6.47
2023-03-26T17:13:41.850Z,8.23
2023-03-26T17:16:11.880Z,7.10
2023-03-26T17:18:41.900Z,10.33
2023-03-26T17:21:12.203Z,18.70
2023-03-26T17:23:42.281Z,27.87
2023-03-26T17:26:15.364Z,28.60
2023-03-26T17:28:48.788Z,23.37
2023-03-26T17:31:18.641Z,16.90
2023-03-26T17:33:47.989Z,14.27
2023-03-26T17:41:14.325Z,9.85
2023-03-26T17:43:45.118Z,16.77
2023-03-26T17:46:33.538Z,14.00
2023-03-26T17:49:03.489Z,17.80
2023-03-26T17:51:40.174Z,26.07
2023-03-26T17:54:19.385Z,26.30
2023-03-26T17:56:48.410Z,17.70
2023-03-26T17:59:18.497Z,17.57
2023-03-26T18:01:48.080Z,17.00
2023-03-26T18:04:19.752Z,15.03
2023-03-26T18:06:59.096Z,16.73
2023-03-26T18:09:31.378Z,13.07
2023-03-26T18:12:03.741Z,13.83
2023-03-26T18:14:49.026Z,9.10
2023-03-26T18:17:17.814Z,11.57
2023-03-26T18:19:51.103Z,17.57
2023-03-26T18:22:21.385Z,44.63
2023-03-26T18:24:50.267Z,41.97
2023-03-26T18:27:23.117Z,48.43
2023-03-26T18:30:03.088Z,38.30
2023-03-26T18:32:34.245Z,34.53
2023-03-26T18:35:04.929Z,38.87
2023-03-26T18:37:36.235Z,48.53
2023-03-26T18:40:19.596Z,52.57
2023-03-26T18:42:49.119Z,43.50
2023-03-26T18:47:44.502Z,52.03
2023-03-26T18:50:14.683Z,50.00
2023-03-26T18:52:43.108Z,30.70
2023-03-26T18:55:13.008Z,25.10
2023-03-26T18:57:42.687Z,27.53
2023-03-26T19:00:22.139Z,35.37
2023-03-26T19:02:51.996Z,32.20
2023-03-26T19:05:20.971Z,39.03
2023-03-26T19:07:49.668Z,37.57
2023-03-26T19:10:20.874Z,32.23
2023-03-26T19:12:56.906Z,32.63
2023-03-26T19:15:27.181Z,32.40
2023-03-26T19:17:58.852Z,26.27
2023-03-26T19:20:29.613Z,17.47
2023-03-26T19:22:58.484Z,27.80
2023-03-26T19:25:28.507Z,44.87
2023-03-26T19:27:57.403Z,52.00
2023-03-26T19:30:30.297Z,60.90
2023-03-26T19:33:13.144Z,65.60
2023-03-26T19:35:32.569Z,61.10
2023-03-26T19:38:01.028Z,62.03
2023-03-26T19:40:30.460Z,69.40
2023-03-26T19:45:26.930Z,60.85
2023-03-26T19:48:11.656Z,58.83
2023-03-26T19:50:28.817Z,57.80
2023-03-26T19:53:15.509Z,35.20
2023-03-26T19:55:37.751Z,18.10
2023-03-26T19:58:07.797Z,11.50
2023-03-26T20:00:36.191Z,11.80
2023-03-26T20:03:05.036Z,12.10
2023-03-26T20:05:35.965Z,12.13
2023-03-26T20:08:06.107Z,10.53
2023-03-26T20:10:36.105Z,13.87
2023-03-26T20:13:04.712Z,15.83
2023-03-26T20:15:34.723Z,12.30
2023-03-26T20:18:04.275Z,14.33
2023-03-26T20:20:34.359Z,12.57
2023-03-26T20:23:02.859Z,13.80
2023-03-26T20:25:32.950Z,15.50
2023-03-26T20:28:01.447Z,20.63
2023-03-26T20:33:12.962Z,12.63
2023-03-26T20:35:36.150Z,15.63
2023-03-26T20:38:00.194Z,14.57
2023-03-26T20:40:28.769Z,21.83
2023-03-26T20:42:57.352Z,17.27
2023-03-26T20:45:26.827Z,15.40
2023-03-26T20:47:55.245Z,13.03
2023-03-26T20:50:25.616Z,10.97
2023-03-26T20:52:54.880Z,9.07
2023-03-26T20:55:23.465Z,10.67
2023-03-26T20:57:51.942Z,9.50
2023-03-26T21:00:22.268Z,9.50
2023-03-26T21:02:54.745Z,16.27
2023-03-26T21:05:27.208Z,11.73
2023-03-26T21:07:56.461Z,14.27
2023-03-26T21:10:26.619Z,12.83
2023-03-26T21:12:56.559Z,11.80
2023-03-26T21:15:25.799Z,11.73
2023-03-26T21:17:56.736Z,9.67
2023-03-26T21:20:28.277Z,10.50
2023-03-26T21:23:02.209Z,10.37
2023-03-26T21:25:38.955Z,9.50
2023-03-26T21:28:11.769Z,7.67
2023-03-26T21:30:40.457Z,8.00
2023-03-26T21:33:08.406Z,7.87
2023-03-26T21:35:37.140Z,9.00
2023-03-26T21:38:06.311Z,8.13
2023-03-26T21:40:35.476Z,9.77
2023-03-26T21:43:04.375Z,10.03
2023-03-26T21:45:33.415Z,7.60
2023-03-26T21:48:02.423Z,7.10
2023-03-26T21:50:31.039Z,7.00
2023-03-26T21:53:00.075Z,6.70
2023-03-26T21:55:28.403Z,5.10
2023-03-26T21:58:04.706Z,4.97
2023-03-26T22:00:43.457Z,5.07
2023-03-26T22:03:08.720Z,7.47
2023-03-26T22:05:45.524Z,7.53
2023-03-26T22:08:24.648Z,5.70
2023-03-26T22:10:53.013Z,5.83
2023-03-26T22:13:21.517Z,6.60
2023-03-26T22:15:50.853Z,7.57
2023-03-26T22:18:21.135Z,8.77
2023-03-26T22:20:50.124Z,7.63
2023-03-26T22:23:18.607Z,8.23
2023-03-26T22:25:47.300Z,7.13
2023-03-26T22:28:16.043Z,6.33
2023-03-26T22:30:44.581Z,6.50
2023-03-26T22:33:13.166Z,7.43
2023-03-26T22:35:43.530Z,7.57
2023-03-26T22:38:11.823Z,8.93
2023-03-26T22:40:40.432Z,6.50
2023-03-26T22:43:09.679Z,7.70
2023-03-26T22:45:38.826Z,8.40
2023-03-26T22:48:07.426Z,7.10
2023-03-26T22:50:36.102Z,9.37
2023-03-26T22:53:05.415Z,8.83
2023-03-26T22:55:34.299Z,8.97
2023-03-26T22:58:02.287Z,15.33
2023-03-26T23:00:31.158Z,16.97
2023-03-26T23:03:01.055Z,15.27
2023-03-26T23:05:29.992Z,14.27
2023-03-26T23:07:58.876Z,17.77
2023-03-26T23:10:29.189Z,14.47
2023-03-26T23:12:57.606Z,14.57
2023-03-26T23:15:27.887Z,12.50
2023-03-26T23:17:56.282Z,12.93
2023-03-26T23:20:24.949Z,15.37
2023-03-26T23:22:53.243Z,12.87
2023-03-26T23:25:21.204Z,10.37
2023-03-26T23:27:50.940Z,8.43
2023-03-26T23:30:19.686Z,10.40
2023-03-26T23:32:48.613Z,8.33
2023-03-26T23:35:17.359Z,7.43
2023-03-26T23:37:45.280Z,8.67
2023-03-26T23:40:13.840Z,10.00
2023-03-26T23:42:43.022Z,8.57
2023-03-26T23:45:12.652Z,8.97
2023-03-26T23:47:42.809Z,7.00
2023-03-26T23:50:13.110Z,8.03
2023-03-26T23:52:41.066Z,9.40
2023-03-26T23:55:09.354Z,9.83
2023-03-26T23:57:38.182Z,12.03
